Time;durP1;ratioP1;P1;durP2;ratioP2;P2;SDS_P1;SDS_P2;PMS_P1;PMS_P2;Temp;Humidity;BMP_temperature;BMP_pressure;BME280_temperature;BME280_humidity;BME280_pressure;Samples;Min_cycle;Max_cycle;Signal;HPM_P1;HPM_P2
2022/12/26 00:04:23;;;;;;;60.67;36.15;;;;;;;;;;10096236;28;20102;-62
2022/12/26 00:09:39;;;;;;;54.33;37.63;;;;;;;;;;10101659;28;20053;-63
2022/12/26 00:14:32;;;;;;;53.92;33.75;;;;;;;;;;10099692;28;20497;-63
2022/12/26 00:19:24;;;;;;;51.35;33.38;;;;;;;;;;10095260;28;20055;-64
2022/12/26 00:24:17;;;;;;;61.67;32.35;;;;;;;;;;10087067;28;20501;-64
2022/12/26 00:29:11;;;;;;;58.83;36.80;;;;;;;;;;10099849;28;20049;-63
2022/12/26 00:34:04;;;;;;;59.90;36.95;;;;;;;;;;10107042;28;20048;-63
2022/12/26 00:38:59;;;;;;;61.58;36.47;;;;;;;;;;10102691;28;20103;-63
2022/12/26 00:43:52;;;;;;;55.67;37.03;;;;;;;;;;10099795;28;20045;-63
2022/12/26 00:48:48;;;;;;;55.38;36.65;;;;;;;;;;10106214;28;20045;-63
2022/12/26 00:53:41;;;;;;;57.55;35.45;;;;;;;;;;10101656;28;20057;-63
2022/12/26 00:58:36;;;;;;;54.67;36.65;;;;;;;;;;10109618;28;20111;-63
2022/12/26 01:03:29;;;;;;;57.70;37.60;;;;;;;;;;10105843;28;20081;-63
2022/12/26 01:08:24;;;;;;;61.28;37.28;;;;;;;;;;10104095;28;20049;-62
2022/12/26 01:13:17;;;;;;;53.53;33.97;;;;;;;;;;10101851;28;20045;-63
2022/12/26 01:18:11;;;;;;;55.83;32.67;;;;;;;;;;10106123;28;20049;-63
2022/12/26 01:23:05;;;;;;;53.47;31.98;;;;;;;;;;10097792;28;20556;-63
2022/12/26 01:27:59;;;;;;;49.72;30.23;;;;;;;;;;10122629;28;20049;-62
2022/12/26 01:32:53;;;;;;;44.72;30.90;;;;;;;;;;10106750;28;20064;-63
2022/12/26 01:37:47;;;;;;;50.08;29.33;;;;;;;;;;10112344;28;20060;-62
2022/12/26 01:42:41;;;;;;;42.92;28.83;;;;;;;;;;10117486;28;20056;-63
2022/12/26 01:47:39;;;;;;;47.42;27.45;;;;;;;;;;10095397;28;20064;-63
2022/12/26 01:52:53;;;;;;;43.22;27.20;;;;;;;;;;10114637;28;20135;-62
2022/12/26 01:57:52;;;;;;;44.22;28.15;;;;;;;;;;10103905;28;20052;-62
2022/12/26 02:07:58;;;;;;;42.20;27.85;;;;;;;;;;10099174;28;20404;-62
2022/12/26 02:12:53;;;;;;;52.60;29.52;;;;;;;;;;10105013;28;20045;-62
2022/12/26 02:17:46;;;;;;;48.90;30.02;;;;;;;;;;10096596;28;20049;-63
2022/12/26 02:23:14;;;;;;;55.13;29.70;;;;;;;;;;10109485;28;20549;-62
2022/12/26 02:28:45;;;;;;;50.95;31.45;;;;;;;;;;10044808;28;20041;-63
2022/12/26 02:34:11;;;;;;;52.20;31.55;;;;;;;;;;10019216;28;20056;-62
2022/12/26 02:39:16;;;;;;;56.40;32.70;;;;;;;;;;10107225;28;20045;-63
2022/12/26 03:18:01;;;;;;;42.50;27.65;;;;;;;;;;10121722;28;20037;-62
2022/12/26 03:23:17;;;;;;;41.97;23.33;;;;;;;;;;10115612;28;20063;-63
2022/12/26 03:28:49;;;;;;;44.17;26.55;;;;;;;;;;10105732;28;20377;-63
2022/12/26 03:39:10;;;;;;;30.80;18.40;;;;;;;;;;10117475;28;20044;-63
2022/12/26 04:53:26;;;;;;;24.10;11.75;;;;;;;;;;10104392;28;20103;-63
2022/12/26 04:58:23;;;;;;;18.00;12.60;;;;;;;;;;10107892;28;20052;-63
2022/12/26 05:13:48;;;;;;;14.30;11.63;;;;;;;;;;10108672;28;20037;-63
2022/12/26 05:29:07;;;;;;;16.42;11.00;;;;;;;;;;10104727;28;20127;-63
2022/12/26 05:34:05;;;;;;;20.17;13.45;;;;;;;;;;10111251;28;20395;-63
2022/12/26 05:38:58;;;;;;;18.73;12.48;;;;;;;;;;10096499;28;20053;-63
2022/12/26 05:43:52;;;;;;;18.77;12.98;;;;;;;;;;10113927;28;20048;-63
2022/12/26 05:48:45;;;;;;;20.90;13.13;;;;;;;;;;10122039;28;20492;-63
2022/12/26 05:53:39;;;;;;;18.60;13.57;;;;;;;;;;10119766;28;20079;-63
2022/12/26 05:58:32;;;;;;;15.38;12.93;;;;;;;;;;10109298;28;20478;-63
2022/12/26 06:03:28;;;;;;;16.75;12.60;;;;;;;;;;10122196;28;20127;-64
2022/12/26 06:08:22;;;;;;;16.35;12.60;;;;;;;;;;10122714;28;20107;-63
2022/12/26 06:13:16;;;;;;;18.95;13.18;;;;;;;;;;10118809;28;20041;-63
2022/12/26 06:18:09;;;;;;;17.10;12.23;;;;;;;;;;10114200;28;20064;-63
2022/12/26 06:23:03;;;;;;;19.23;13.88;;;;;;;;;;10117470;28;20052;-63
2022/12/26 06:27:57;;;;;;;21.75;13.32;;;;;;;;;;10120575;28;20060;-63
2022/12/26 06:32:52;;;;;;;19.25;14.63;;;;;;;;;;10107440;28;20044;-63
2022/12/26 06:37:45;;;;;;;23.27;15.38;;;;;;;;;;10104418;28;20060;-61
2022/12/26 06:42:39;;;;;;;24.00;17.65;;;;;;;;;;10104736;28;20057;-61
2022/12/26 06:47:32;;;;;;;28.13;17.95;;;;;;;;;;10103754;28;20041;-61
2022/12/26 06:52:27;;;;;;;22.42;16.50;;;;;;;;;;10104009;28;20060;-61
2022/12/26 06:57:20;;;;;;;23.50;17.98;;;;;;;;;;10110487;28;20132;-61
2022/12/26 07:02:14;;;;;;;27.17;19.38;;;;;;;;;;10114992;28;20126;-61
2022/12/26 07:07:08;;;;;;;32.75;22.90;;;;;;;;;;10125189;28;20069;-61
2022/12/26 07:12:02;;;;;;;28.40;19.85;;;;;;;;;;10120910;28;20061;-62
2022/12/26 07:16:56;;;;;;;26.40;19.92;;;;;;;;;;10112623;28;20061;-61
2022/12/26 07:21:50;;;;;;;26.83;19.60;;;;;;;;;;10122161;28;20045;-61
2022/12/26 07:26:45;;;;;;;24.05;19.70;;;;;;;;;;10120082;28;20405;-61
2022/12/26 07:31:39;;;;;;;24.50;19.10;;;;;;;;;;10114222;28;20110;-61
2022/12/26 07:36:33;;;;;;;28.25;19.38;;;;;;;;;;10111196;28;20053;-62
2022/12/26 07:46:41;;;;;;;26.15;19.25;;;;;;;;;;10112843;28;20049;-61
2022/12/26 07:51:35;;;;;;;26.27;18.27;;;;;;;;;;10110881;28;20509;-62
2022/12/26 07:56:31;;;;;;;23.80;18.00;;;;;;;;;;10122331;28;20044;-62
2022/12/26 08:01:24;;;;;;;25.33;17.98;;;;;;;;;;10117506;28;20055;-62
2022/12/26 08:06:18;;;;;;;21.23;16.00;;;;;;;;;;10113872;28;20057;-62
2022/12/26 08:11:33;;;;;;;21.73;16.45;;;;;;;;;;10110609;28;20539;-62
2022/12/26 08:16:30;;;;;;;19.15;14.52;;;;;;;;;;10132591;28;20049;-62
2022/12/26 08:21:24;;;;;;;23.52;17.05;;;;;;;;;;10109907;28;20049;-62
2022/12/26 08:26:19;;;;;;;21.15;16.75;;;;;;;;;;10108434;28;20033;-62
2022/12/26 08:31:14;;;;;;;22.48;16.30;;;;;;;;;;10129638;28;20055;-62
2022/12/26 08:36:11;;;;;;;17.98;14.45;;;;;;;;;;10108963;28;20406;-62
2022/12/26 08:41:05;;;;;;;17.48;13.30;;;;;;;;;;10120752;28;20060;-62
2022/12/26 08:46:04;;;;;;;16.13;13.10;;;;;;;;;;10108064;28;20048;-61
2022/12/26 08:51:03;;;;;;;16.90;13.88;;;;;;;;;;10098683;28;20058;-66
2022/12/26 08:55:56;;;;;;;19.70;15.37;;;;;;;;;;10103292;28;20098;-66
2022/12/26 09:00:49;;;;;;;22.92;16.02;;;;;;;;;;10102662;28;20102;-66
2022/12/26 09:05:47;;;;;;;19.17;15.73;;;;;;;;;;10112027;28;20501;-69
2022/12/26 09:10:43;;;;;;;18.67;15.23;;;;;;;;;;10116434;28;20080;-70
2022/12/26 09:15:36;;;;;;;20.73;15.80;;;;;;;;;;10104371;28;20049;-68
2022/12/26 09:20:31;;;;;;;18.60;15.45;;;;;;;;;;10113146;28;20102;-70
2022/12/26 09:25:25;;;;;;;19.63;16.08;;;;;;;;;;10113077;28;20090;-69
2022/12/26 09:30:20;;;;;;;19.05;15.32;;;;;;;;;;10111656;28;20513;-69
2022/12/26 09:35:14;;;;;;;21.52;17.13;;;;;;;;;;10121356;28;20041;-69
2022/12/26 09:40:21;;;;;;;27.02;18.60;;;;;;;;;;10113044;28;20480;-68
2022/12/26 09:45:18;;;;;;;31.08;19.05;;;;;;;;;;10093957;28;20083;-67
2022/12/26 09:50:24;;;;;;;27.35;21.02;;;;;;;;;;10086088;28;20069;-67
2022/12/26 09:55:43;;;;;;;37.22;27.35;;;;;;;;;;10088141;28;20549;-68
2022/12/26 10:00:44;;;;;;;33.85;24.67;;;;;;;;;;10069152;28;20099;-67
2022/12/26 10:05:55;;;;;;;36.17;25.38;;;;;;;;;;10074369;28;20048;-66
2022/12/26 10:10:56;;;;;;;32.85;24.13;;;;;;;;;;10081970;28;20051;-67
2022/12/26 10:15:58;;;;;;;36.55;26.00;;;;;;;;;;10088659;28;20041;-67
2022/12/26 10:21:00;;;;;;;36.38;27.83;;;;;;;;;;10081384;28;20037;-66
2022/12/26 10:25:58;;;;;;;38.78;28.88;;;;;;;;;;10084398;28;20052;-67
2022/12/26 10:30:53;;;;;;;;;;;;;;;;;;10074158;28;20512;-65
2022/12/26 10:35:46;;;;;;;36.42;26.77;;;;;;;;;;10074884;28;20388;-67
2022/12/26 10:40:43;;;;;;;36.22;27.75;;;;;;;;;;10078745;28;20103;-66
2022/12/26 10:46:16;;;;;;;34.10;26.92;;;;;;;;;;10094326;28;20455;-66
2022/12/26 10:51:11;;;;;;;36.60;28.80;;;;;;;;;;10108907;28;20059;-67
2022/12/26 10:56:06;;;;;;;40.13;29.15;;;;;;;;;;10089398;28;20072;-69
2022/12/26 11:01:27;;;;;;;36.42;28.02;;;;;;;;;;10121442;28;20082;-69
2022/12/26 11:06:25;;;;;;;34.50;28.33;;;;;;;;;;10111606;28;20075;-69
2022/12/26 11:11:21;;;;;;;36.55;29.33;;;;;;;;;;10103597;28;20056;-69
2022/12/26 11:16:29;;;;;;;37.20;27.75;;;;;;;;;;10116600;28;20049;-70
2022/12/26 11:21:26;;;;;;;35.70;28.17;;;;;;;;;;10104561;28;20053;-70
2022/12/26 11:26:25;;;;;;;71.78;60.38;;;;;;;;;;10111845;28;20041;-70
2022/12/26 11:31:25;;;;;;;39.28;31.08;;;;;;;;;;10111819;28;20053;-70
2022/12/26 11:36:22;;;;;;;40.58;31.27;;;;;;;;;;10110900;28;20052;-69
2022/12/26 11:41:32;;;;;;;42.33;30.75;;;;;;;;;;10116937;28;20040;-71
2022/12/26 11:47:10;;;;;;;39.53;30.55;;;;;;;;;;10104178;28;20052;-70
2022/12/26 11:52:40;;;;;;;38.92;29.13;;;;;;;;;;10098039;28;20141;-69
2022/12/26 11:57:34;;;;;;;40.85;30.63;;;;;;;;;;10114987;28;20037;-67
2022/12/26 12:02:32;;;;;;;42.78;33.08;;;;;;;;;;10125961;28;20102;-68
2022/12/26 12:07:37;;;;;;;39.63;31.07;;;;;;;;;;10134823;28;20100;-67
2022/12/26 12:12:45;;;;;;;42.22;30.98;;;;;;;;;;10123803;28;20053;-68
2022/12/26 12:18:01;;;;;;;42.90;30.00;;;;;;;;;;10113398;28;20107;-67
2022/12/26 12:23:24;;;;;;;41.85;32.05;;;;;;;;;;10128313;28;20452;-66
2022/12/26 12:28:35;;;;;;;40.67;30.67;;;;;;;;;;10096981;28;20155;-67
2022/12/26 12:33:48;;;;;;;40.67;33.10;;;;;;;;;;10113461;28;20060;-66
2022/12/26 12:38:58;;;;;;;47.00;32.42;;;;;;;;;;10102253;28;20108;-67
2022/12/26 12:44:31;;;;;;;41.78;32.58;;;;;;;;;;10112021;28;20053;-68
2022/12/26 12:50:16;;;;;;;41.15;30.98;;;;;;;;;;10094818;28;20059;-67
2022/12/26 12:55:36;;;;;;;46.95;34.65;;;;;;;;;;9898855;28;20130;-67
2022/12/26 13:00:46;;;;;;;39.25;30.90;;;;;;;;;;10032598;28;20132;-67
2022/12/26 13:05:48;;;;;;;45.58;32.92;;;;;;;;;;10081877;28;20048;-66
2022/12/26 13:10:55;;;;;;;44.53;34.22;;;;;;;;;;10083358;28;20409;-66
2022/12/26 13:15:52;;;;;;;44.97;33.58;;;;;;;;;;10078664;28;20051;-65
2022/12/26 13:21:10;;;;;;;45.67;31.77;;;;;;;;;;10080393;28;20051;-66
2022/12/26 13:26:19;;;;;;;42.08;33.60;;;;;;;;;;10095516;28;20049;-66
2022/12/26 13:31:13;;;;;;;41.65;32.35;;;;;;;;;;10079185;28;20060;-66
2022/12/26 13:36:08;;;;;;;49.22;37.05;;;;;;;;;;10079929;28;20077;-66
2022/12/26 13:43:53;;;;;;;52.05;38.25;;;;;;;;;;10076219;28;20064;-66
2022/12/26 13:46:50;;;;;;;52.72;40.88;;;;;;;;;;10075041;28;20409;-66
2022/12/26 13:51:49;;;;;;;53.08;40.13;;;;;;;;;;9995132;28;20056;-69
2022/12/26 13:56:42;;;;;;;45.25;35.30;;;;;;;;;;10060533;28;20049;-65
2022/12/26 14:01:59;;;;;;;47.28;38.15;;;;;;;;;;10074086;28;20044;-64
2022/12/26 14:07:21;;;;;;;48.17;35.88;;;;;;;;;;10078054;28;20051;-65
2022/12/26 14:12:39;;;;;;;48.63;37.38;;;;;;;;;;10080031;28;20133;-65
2022/12/26 14:18:03;;;;;;;46.85;35.83;;;;;;;;;;10077818;28;20052;-65
2022/12/26 14:23:01;;;;;;;44.25;33.75;;;;;;;;;;10080841;28;20049;-64
2022/12/26 14:28:09;;;;;;;42.83;32.90;;;;;;;;;;10080479;28;20065;-65
2022/12/26 14:33:14;;;;;;;50.28;37.50;;;;;;;;;;10079504;28;20504;-65
2022/12/26 14:38:28;;;;;;;45.83;37.20;;;;;;;;;;10073502;28;20069;-64
2022/12/26 14:43:40;;;;;;;62.15;43.42;;;;;;;;;;10074464;28;20854;-67
2022/12/26 14:48:32;;;;;;;61.80;45.83;;;;;;;;;;10082626;28;20448;-68
2022/12/26 14:53:27;;;;;;;54.35;39.72;;;;;;;;;;10106990;28;20114;-68
2022/12/26 14:58:30;;;;;;;52.80;40.67;;;;;;;;;;10101405;28;20048;-68
2022/12/26 15:03:36;;;;;;;58.47;42.42;;;;;;;;;;10113230;28;20107;-67
2022/12/26 15:09:08;;;;;;;56.63;42.97;;;;;;;;;;10098370;28;20095;-65
2022/12/26 15:14:09;;;;;;;59.28;41.05;;;;;;;;;;10069555;28;20048;-64
2022/12/26 15:19:41;;;;;;;60.63;42.97;;;;;;;;;;10122724;28;20072;-70
2022/12/26 15:25:12;;;;;;;57.20;42.47;;;;;;;;;;10117820;28;20045;-64
2022/12/26 15:30:20;;;;;;;66.20;53.15;;;;;;;;;;10135683;28;20068;-64
2022/12/26 15:35:28;;;;;;;65.68;48.50;;;;;;;;;;10115411;28;20460;-65
2022/12/26 15:40:29;;;;;;;54.08;43.88;;;;;;;;;;10129829;28;20049;-65
2022/12/26 15:45:32;;;;;;;59.75;43.05;;;;;;;;;;10101529;28;20667;-65
2022/12/26 15:50:36;;;;;;;63.90;44.25;;;;;;;;;;10120025;28;20052;-65
2022/12/26 15:56:02;;;;;;;57.78;42.75;;;;;;;;;;10125035;28;20064;-64
2022/12/26 16:00:58;;;;;;;64.65;46.13;;;;;;;;;;10045557;28;20087;-64
2022/12/26 16:05:54;;;;;;;56.88;43.15;;;;;;;;;;10122857;28;20049;-64
2022/12/26 16:10:49;;;;;;;55.08;41.03;;;;;;;;;;10124006;28;20075;-64
2022/12/26 16:15:56;;;;;;;66.40;49.15;;;;;;;;;;10118869;28;20141;-64
2022/12/26 16:26:02;;;;;;;62.28;46.45;;;;;;;;;;10121258;28;20071;-65
2022/12/26 16:30:57;;;;;;;65.03;47.47;;;;;;;;;;10117805;28;20057;-65
2022/12/26 16:35:52;;;;;;;59.10;42.85;;;;;;;;;;10125313;28;20060;-65
2022/12/26 16:40:55;;;;;;;58.60;44.45;;;;;;;;;;10119627;28;20390;-65
2022/12/26 16:45:52;;;;;;;60.97;45.75;;;;;;;;;;10122961;28;20072;-64
2022/12/26 16:50:54;;;;;;;61.85;43.60;;;;;;;;;;10121488;28;20460;-65
2022/12/26 16:56:16;;;;;;;61.20;45.95;;;;;;;;;;10116587;28;20098;-65
2022/12/26 17:01:13;;;;;;;60.55;46.17;;;;;;;;;;10122685;28;20080;-65
2022/12/26 17:06:12;;;;;;;63.78;46.92;;;;;;;;;;10119979;28;20041;-66
2022/12/26 17:11:06;;;;;;;68.85;48.63;;;;;;;;;;10101308;28;20067;-68
2022/12/26 17:16:00;;;;;;;65.13;46.42;;;;;;;;;;10118299;28;20045;-65
2022/12/26 17:20:54;;;;;;;64.78;50.25;;;;;;;;;;10123267;28;20048;-66
2022/12/26 17:25:48;;;;;;;66.88;47.75;;;;;;;;;;10115078;28;20063;-67
2022/12/26 17:30:44;;;;;;;62.97;46.03;;;;;;;;;;10118923;28;20393;-66
2022/12/26 17:35:37;;;;;;;64.68;45.95;;;;;;;;;;10097740;28;20045;-66
2022/12/26 17:41:00;;;;;;;68.03;50.03;;;;;;;;;;10116054;28;20041;-66
2022/12/26 17:45:52;;;;;;;68.85;48.95;;;;;;;;;;10116199;28;20053;-68
2022/12/26 17:50:47;;;;;;;69.72;50.50;;;;;;;;;;10117105;28;20705;-63
2022/12/26 17:55:41;;;;;;;74.65;52.58;;;;;;;;;;10114046;28;20052;-64
2022/12/26 18:00:35;;;;;;;77.50;52.58;;;;;;;;;;10117483;28;20424;-63
2022/12/26 18:05:29;;;;;;;74.22;53.17;;;;;;;;;;10117450;28;20076;-63
2022/12/26 18:10:29;;;;;;;67.88;52.55;;;;;;;;;;10117787;28;20063;-63
2022/12/26 18:15:24;;;;;;;72.70;52.95;;;;;;;;;;10114811;28;20052;-62
2022/12/26 18:20:24;;;;;;;74.22;53.53;;;;;;;;;;10115601;28;20091;-62
2022/12/26 18:25:22;;;;;;;69.65;52.08;;;;;;;;;;10114376;28;20061;-61
2022/12/26 18:30:23;;;;;;;73.45;52.75;;;;;;;;;;10101474;28;20053;-61
2022/12/26 18:35:18;;;;;;;72.32;52.38;;;;;;;;;;10118773;28;20045;-61
2022/12/26 18:40:33;;;;;;;72.00;54.20;;;;;;;;;;10123007;28;20118;-61
2022/12/26 18:45:27;;;;;;;78.45;54.17;;;;;;;;;;10116595;28;20508;-61
2022/12/26 18:50:22;;;;;;;81.03;58.67;;;;;;;;;;10117248;28;20064;-61
2022/12/26 18:55:16;;;;;;;88.55;59.83;;;;;;;;;;10122673;28;20049;-60
2022/12/26 19:00:13;;;;;;;72.35;51.83;;;;;;;;;;10123469;28;20069;-61
2022/12/26 19:05:12;;;;;;;77.13;57.33;;;;;;;;;;10126932;28;20045;-61
2022/12/26 19:10:07;;;;;;;;;;;;;;;;;;10112706;28;20037;-62
2022/12/26 19:15:01;;;;;;;81.43;55.08;;;;;;;;;;10114883;28;19971;-62
2022/12/26 19:19:55;;;;;;;72.38;52.03;;;;;;;;;;10131296;28;20482;-63
2022/12/26 19:24:48;;;;;;;68.68;46.70;;;;;;;;;;10134679;28;20084;-63
2022/12/26 19:29:42;;;;;;;74.70;50.65;;;;;;;;;;10133744;28;20068;-63
2022/12/26 19:34:42;;;;;;;65.30;46.08;;;;;;;;;;10130886;28;20048;-63
2022/12/26 19:39:36;;;;;;;91.50;63.13;;;;;;;;;;10127780;28;20124;-63
2022/12/26 19:44:30;;;;;;;72.97;53.60;;;;;;;;;;10130157;28;20053;-63
2022/12/26 19:49:24;;;;;;;70.47;48.88;;;;;;;;;;10128306;28;20072;-66
2022/12/26 19:54:24;;;;;;;74.88;51.58;;;;;;;;;;10134168;28;20052;-63
2022/12/26 19:59:18;;;;;;;69.35;51.20;;;;;;;;;;10130337;28;20102;-63
2022/12/26 20:04:12;;;;;;;82.38;54.28;;;;;;;;;;10127629;28;20098;-63
2022/12/26 20:09:12;;;;;;;73.10;49.67;;;;;;;;;;10124343;28;20073;-62
2022/12/26 20:14:08;;;;;;;65.82;48.45;;;;;;;;;;10119242;28;20045;-63
2022/12/26 20:19:01;;;;;;;66.50;48.45;;;;;;;;;;10103522;28;20048;-63
2022/12/26 20:23:59;;;;;;;74.90;51.05;;;;;;;;;;10115748;28;20072;-62
2022/12/26 20:29:00;;;;;;;75.68;51.42;;;;;;;;;;10107848;28;20412;-63
2022/12/26 20:33:53;;;;;;;71.53;50.03;;;;;;;;;;10116593;28;20064;-63
2022/12/26 20:38:46;;;;;;;73.40;48.83;;;;;;;;;;10122047;28;20127;-63
2022/12/26 20:43:40;;;;;;;74.82;52.25;;;;;;;;;;10119992;28;20459;-62
2022/12/26 20:48:39;;;;;;;78.32;53.17;;;;;;;;;;10119099;28;20053;-62
2022/12/26 20:53:34;;;;;;;75.47;52.55;;;;;;;;;;10114002;28;20049;-61
2022/12/26 20:58:32;;;;;;;87.30;57.42;;;;;;;;;;10121186;28;20056;-61
2022/12/26 21:03:30;;;;;;;80.72;56.65;;;;;;;;;;10117291;28;20059;-61
2022/12/26 21:08:24;;;;;;;75.75;56.13;;;;;;;;;;10114786;28;20076;-62
2022/12/26 21:13:18;;;;;;;83.47;59.03;;;;;;;;;;10118256;28;20257;-61
2022/12/26 21:18:12;;;;;;;79.47;57.15;;;;;;;;;;10118145;28;20099;-62
2022/12/26 21:23:06;;;;;;;76.20;54.25;;;;;;;;;;10116580;28;20068;-61
2022/12/26 21:27:59;;;;;;;74.72;51.83;;;;;;;;;;10116619;28;20044;-61
2022/12/26 21:32:52;;;;;;;75.40;52.67;;;;;;;;;;10113121;28;20041;-62
2022/12/26 21:37:53;;;;;;;83.57;55.83;;;;;;;;;;10119198;28;20053;-62
2022/12/26 21:42:46;;;;;;;76.88;56.50;;;;;;;;;;10115952;28;20473;-66
2022/12/26 21:47:40;;;;;;;78.60;54.47;;;;;;;;;;10116500;28;20406;-61
2022/12/26 21:52:34;;;;;;;78.85;56.40;;;;;;;;;;10114223;28;20061;-61
2022/12/26 21:57:30;;;;;;;72.75;52.45;;;;;;;;;;10114037;28;20083;-60
2022/12/26 22:07:44;;;;;;;81.25;52.35;;;;;;;;;;10111970;28;20052;-61
2022/12/26 22:12:56;;;;;;;76.07;51.78;;;;;;;;;;10117348;28;20067;-61
2022/12/26 22:17:50;;;;;;;68.82;49.22;;;;;;;;;;10116334;28;20049;-61
2022/12/26 22:22:44;;;;;;;69.05;47.70;;;;;;;;;;10112639;28;20128;-60
2022/12/26 22:27:38;;;;;;;65.70;46.30;;;;;;;;;;10113543;28;20079;-61
2022/12/26 22:32:33;;;;;;;67.78;47.00;;;;;;;;;;10111894;28;20055;-61
2022/12/26 22:37:26;;;;;;;69.72;47.13;;;;;;;;;;10111866;28;20099;-62
2022/12/26 22:42:20;;;;;;;71.80;47.47;;;;;;;;;;10113528;28;20412;-61
2022/12/26 22:47:13;;;;;;;66.50;46.80;;;;;;;;;;10113046;28;20103;-63
2022/12/26 22:52:08;;;;;;;67.78;46.30;;;;;;;;;;10113171;28;20052;-63
2022/12/26 22:57:07;;;;;;;69.47;48.72;;;;;;;;;;10115006;28;20044;-64
2022/12/26 23:02:01;;;;;;;70.40;47.17;;;;;;;;;;10111030;28;20672;-64
2022/12/26 23:06:56;;;;;;;67.80;45.53;;;;;;;;;;10111184;28;20052;-65
2022/12/26 23:21:37;;;;;;;65.57;44.15;;;;;;;;;;10108702;28;20048;-64
2022/12/26 23:22:27;;;;;;;73.40;46.85;;;;;;;;;;10113778;28;20091;-64
2022/12/26 23:32:34;;;;;;;63.58;42.72;;;;;;;;;;10113742;28;20041;-65
2022/12/26 23:37:28;;;;;;;71.97;48.15;;;;;;;;;;10114485;28;20064;-65
2022/12/26 23:42:22;;;;;;;66.40;46.15;;;;;;;;;;10118852;28;20060;-64
2022/12/26 23:47:16;;;;;;;73.40;49.38;;;;;;;;;;10121636;28;20071;-64
2022/12/26 23:52:10;;;;;;;68.95;46.03;;;;;;;;;;10116723;28;20057;-64
2022/12/26 23:57:03;;;;;;;70.15;44.17;;;;;;;;;;10115204;28;20065;-65
